sensor_id;sensor_type;location;lat;lon;timestamp;P1;durP1;ratioP1;P2;durP2;ratioP2
49626;SDS011;35527;54.616;39.786;2023-02-18T00:01:22;12.20;;;4.47;;
49626;SDS011;35527;54.616;39.786;2023-02-18T00:04:29;10.50;;;4.78;;
49626;SDS011;35527;54.616;39.786;2023-02-18T00:07:33;15.77;;;5.68;;
49626;SDS011;35527;54.616;39.786;2023-02-18T00:10:43;14.13;;;5.63;;
49626;SDS011;35527;54.616;39.786;2023-02-18T00:13:52;18.95;;;6.63;;
49626;SDS011;35527;54.616;39.786;2023-02-18T00:17:23;21.02;;;6.63;;
49626;SDS011;35527;54.616;39.786;2023-02-18T00:20:26;17.60;;;6.50;;
49626;SDS011;35527;54.616;39.786;2023-02-18T00:23:29;12.18;;;5.05;;
49626;SDS011;35527;54.616;39.786;2023-02-18T00:26:33;16.92;;;5.80;;
49626;SDS011;35527;54.616;39.786;2023-02-18T00:29:38;9.20;;;4.03;;
49626;SDS011;35527;54.616;39.786;2023-02-18T00:32:41;10.60;;;4.15;;
49626;SDS011;35527;54.616;39.786;2023-02-18T00:35:44;9.10;;;3.45;;
49626;SDS011;35527;54.616;39.786;2023-02-18T00:38:50;7.95;;;3.35;;
49626;SDS011;35527;54.616;39.786;2023-02-18T00:41:57;9.63;;;3.92;;
49626;SDS011;35527;54.616;39.786;2023-02-18T00:45:03;9.68;;;4.57;;
49626;SDS011;35527;54.616;39.786;2023-02-18T00:48:09;8.07;;;3.75;;
49626;SDS011;35527;54.616;39.786;2023-02-18T00:51:11;10.93;;;3.90;;
49626;SDS011;35527;54.616;39.786;2023-02-18T00:57:21;10.48;;;4.15;;
49626;SDS011;35527;54.616;39.786;2023-02-18T01:00:24;11.48;;;3.80;;
49626;SDS011;35527;54.616;39.786;2023-02-18T01:03:27;7.95;;;3.60;;
49626;SDS011;35527;54.616;39.786;2023-02-18T01:06:32;12.73;;;3.58;;
49626;SDS011;35527;54.616;39.786;2023-02-18T01:09:38;7.93;;;3.20;;
49626;SDS011;35527;54.616;39.786;2023-02-18T01:12:41;11.13;;;3.78;;
49626;SDS011;35527;54.616;39.786;2023-02-18T01:15:44;10.05;;;3.55;;
49626;SDS011;35527;54.616;39.786;2023-02-18T01:18:51;12.32;;;3.83;;
49626;SDS011;35527;54.616;39.786;2023-02-18T01:21:55;9.30;;;3.17;;
49626;SDS011;35527;54.616;39.786;2023-02-18T01:24:59;9.63;;;3.65;;
49626;SDS011;35527;54.616;39.786;2023-02-18T01:28:02;10.13;;;6.65;;
49626;SDS011;35527;54.616;39.786;2023-02-18T01:31:08;8.75;;;5.80;;
49626;SDS011;35527;54.616;39.786;2023-02-18T01:34:15;5.68;;;2.53;;
49626;SDS011;35527;54.616;39.786;2023-02-18T01:37:18;6.63;;;2.42;;
49626;SDS011;35527;54.616;39.786;2023-02-18T01:40:23;9.63;;;6.05;;
49626;SDS011;35527;54.616;39.786;2023-02-18T01:43:29;6.03;;;2.55;;
49626;SDS011;35527;54.616;39.786;2023-02-18T01:46:32;6.35;;;2.53;;
49626;SDS011;35527;54.616;39.786;2023-02-18T01:49:37;7.90;;;3.30;;
49626;SDS011;35527;54.616;39.786;2023-02-18T01:52:45;6.53;;;3.00;;
49626;SDS011;35527;54.616;39.786;2023-02-18T01:55:48;8.18;;;3.40;;
49626;SDS011;35527;54.616;39.786;2023-02-18T01:58:52;8.88;;;3.33;;
49626;SDS011;35527;54.616;39.786;2023-02-18T02:01:58;5.25;;;2.38;;
49626;SDS011;35527;54.616;39.786;2023-02-18T02:05:05;8.88;;;3.75;;
49626;SDS011;35527;54.616;39.786;2023-02-18T02:08:11;9.02;;;3.45;;
49626;SDS011;35527;54.616;39.786;2023-02-18T02:11:28;9.13;;;3.80;;
49626;SDS011;35527;54.616;39.786;2023-02-18T02:21:45;6.55;;;2.72;;
49626;SDS011;35527;54.616;39.786;2023-02-18T02:35:44;6.43;;;3.17;;
49626;SDS011;35527;54.616;39.786;2023-02-18T02:39:42;10.35;;;3.92;;
49626;SDS011;35527;54.616;39.786;2023-02-18T02:52:51;9.57;;;3.50;;
49626;SDS011;35527;54.616;39.786;2023-02-18T02:56:02;12.25;;;4.50;;
49626;SDS011;35527;54.616;39.786;2023-02-18T02:59:08;9.50;;;4.65;;
49626;SDS011;35527;54.616;39.786;2023-02-18T03:19:28;7.97;;;3.40;;
49626;SDS011;35527;54.616;39.786;2023-02-18T03:22:38;5.53;;;2.97;;
49626;SDS011;35527;54.616;39.786;2023-02-18T03:25:45;10.40;;;3.80;;
49626;SDS011;35527;54.616;39.786;2023-02-18T03:28:50;9.82;;;4.00;;
49626;SDS011;35527;54.616;39.786;2023-02-18T03:31:59;5.13;;;2.90;;
49626;SDS011;35527;54.616;39.786;2023-02-18T03:35:14;11.05;;;4.40;;
49626;SDS011;35527;54.616;39.786;2023-02-18T03:38:23;8.55;;;3.40;;
49626;SDS011;35527;54.616;39.786;2023-02-18T03:41:31;7.88;;;3.67;;
49626;SDS011;35527;54.616;39.786;2023-02-18T03:44:35;6.20;;;2.90;;
49626;SDS011;35527;54.616;39.786;2023-02-18T03:47:40;11.23;;;3.08;;
49626;SDS011;35527;54.616;39.786;2023-02-18T03:50:42;6.13;;;2.42;;
49626;SDS011;35527;54.616;39.786;2023-02-18T03:53:46;10.55;;;3.67;;
49626;SDS011;35527;54.616;39.786;2023-02-18T03:56:52;10.07;;;3.60;;
49626;SDS011;35527;54.616;39.786;2023-02-18T03:59:57;5.70;;;2.85;;
49626;SDS011;35527;54.616;39.786;2023-02-18T04:03:00;6.97;;;2.90;;
49626;SDS011;35527;54.616;39.786;2023-02-18T04:06:04;7.82;;;3.13;;
49626;SDS011;35527;54.616;39.786;2023-02-18T04:09:10;7.00;;;3.00;;
49626;SDS011;35527;54.616;39.786;2023-02-18T04:15:21;5.43;;;2.40;;
49626;SDS011;35527;54.616;39.786;2023-02-18T04:18:25;8.02;;;3.33;;
49626;SDS011;35527;54.616;39.786;2023-02-18T04:21:30;5.60;;;2.58;;
49626;SDS011;35527;54.616;39.786;2023-02-18T04:24:33;4.13;;;1.95;;
49626;SDS011;35527;54.616;39.786;2023-02-18T04:27:37;6.95;;;2.50;;
49626;SDS011;35527;54.616;39.786;2023-02-18T04:30:42;5.78;;;2.20;;
49626;SDS011;35527;54.616;39.786;2023-02-18T04:33:46;9.43;;;2.63;;
49626;SDS011;35527;54.616;39.786;2023-02-18T04:36:52;6.40;;;2.53;;
49626;SDS011;35527;54.616;39.786;2023-02-18T04:39:54;8.45;;;3.58;;
49626;SDS011;35527;54.616;39.786;2023-02-18T04:42:59;7.13;;;3.13;;
49626;SDS011;35527;54.616;39.786;2023-02-18T04:46:27;7.43;;;2.95;;
49626;SDS011;35527;54.616;39.786;2023-02-18T04:49:34;6.47;;;3.15;;
49626;SDS011;35527;54.616;39.786;2023-02-18T04:52:37;6.95;;;3.13;;
49626;SDS011;35527;54.616;39.786;2023-02-18T04:55:47;6.47;;;2.92;;
49626;SDS011;35527;54.616;39.786;2023-02-18T04:58:52;8.20;;;2.83;;
49626;SDS011;35527;54.616;39.786;2023-02-18T05:01:56;6.63;;;2.47;;
49626;SDS011;35527;54.616;39.786;2023-02-18T05:05:27;10.05;;;3.47;;
49626;SDS011;35527;54.616;39.786;2023-02-18T05:08:31;7.72;;;2.70;;
49626;SDS011;35527;54.616;39.786;2023-02-18T05:11:37;6.28;;;2.70;;
49626;SDS011;35527;54.616;39.786;2023-02-18T05:14:41;5.80;;;2.67;;
49626;SDS011;35527;54.616;39.786;2023-02-18T05:18:10;9.10;;;6.45;;
49626;SDS011;35527;54.616;39.786;2023-02-18T05:21:13;8.07;;;3.20;;
49626;SDS011;35527;54.616;39.786;2023-02-18T05:24:22;6.03;;;2.47;;
49626;SDS011;35527;54.616;39.786;2023-02-18T05:27:26;6.37;;;2.70;;
49626;SDS011;35527;54.616;39.786;2023-02-18T05:30:28;5.70;;;2.38;;
49626;SDS011;35527;54.616;39.786;2023-02-18T05:33:31;8.57;;;2.88;;
49626;SDS011;35527;54.616;39.786;2023-02-18T05:36:35;7.47;;;3.42;;
49626;SDS011;35527;54.616;39.786;2023-02-18T05:39:38;8.40;;;3.60;;
49626;SDS011;35527;54.616;39.786;2023-02-18T05:42:42;6.80;;;2.78;;
49626;SDS011;35527;54.616;39.786;2023-02-18T05:45:46;8.90;;;6.10;;
49626;SDS011;35527;54.616;39.786;2023-02-18T05:49:19;8.40;;;3.30;;
49626;SDS011;35527;54.616;39.786;2023-02-18T05:52:22;7.35;;;3.13;;
49626;SDS011;35527;54.616;39.786;2023-02-18T05:55:26;9.13;;;3.53;;
49626;SDS011;35527;54.616;39.786;2023-02-18T05:58:31;7.30;;;2.85;;
49626;SDS011;35527;54.616;39.786;2023-02-18T06:01:35;7.32;;;2.67;;
49626;SDS011;35527;54.616;39.786;2023-02-18T06:04:38;8.27;;;3.47;;
49626;SDS011;35527;54.616;39.786;2023-02-18T06:07:41;6.88;;;2.80;;
49626;SDS011;35527;54.616;39.786;2023-02-18T06:10:45;10.27;;;3.80;;
49626;SDS011;35527;54.616;39.786;2023-02-18T06:13:51;7.65;;;2.92;;
49626;SDS011;35527;54.616;39.786;2023-02-18T06:16:54;7.65;;;2.97;;
49626;SDS011;35527;54.616;39.786;2023-02-18T06:19:59;9.07;;;2.97;;
49626;SDS011;35527;54.616;39.786;2023-02-18T06:23:02;7.57;;;2.70;;
49626;SDS011;35527;54.616;39.786;2023-02-18T06:26:06;7.00;;;3.05;;
49626;SDS011;35527;54.616;39.786;2023-02-18T06:32:15;6.13;;;2.53;;
49626;SDS011;35527;54.616;39.786;2023-02-18T06:35:18;7.50;;;2.90;;
49626;SDS011;35527;54.616;39.786;2023-02-18T06:38:21;3.88;;;1.92;;
49626;SDS011;35527;54.616;39.786;2023-02-18T06:41:26;7.22;;;2.88;;
49626;SDS011;35527;54.616;39.786;2023-02-18T06:44:31;6.32;;;2.75;;
49626;SDS011;35527;54.616;39.786;2023-02-18T06:47:35;8.00;;;3.67;;
49626;SDS011;35527;54.616;39.786;2023-02-18T06:50:41;6.38;;;2.78;;
49626;SDS011;35527;54.616;39.786;2023-02-18T06:53:44;7.38;;;2.78;;
49626;SDS011;35527;54.616;39.786;2023-02-18T06:56:49;4.83;;;2.10;;
49626;SDS011;35527;54.616;39.786;2023-02-18T06:59:53;4.53;;;2.03;;
49626;SDS011;35527;54.616;39.786;2023-02-18T07:02:57;7.70;;;3.28;;
49626;SDS011;35527;54.616;39.786;2023-02-18T07:06:00;7.27;;;3.03;;
49626;SDS011;35527;54.616;39.786;2023-02-18T07:09:03;6.60;;;2.53;;
49626;SDS011;35527;54.616;39.786;2023-02-18T07:12:07;6.28;;;2.40;;
49626;SDS011;35527;54.616;39.786;2023-02-18T07:15:13;8.40;;;3.40;;
49626;SDS011;35527;54.616;39.786;2023-02-18T07:18:18;5.32;;;2.47;;
49626;SDS011;35527;54.616;39.786;2023-02-18T07:21:21;7.20;;;4.88;;
49626;SDS011;35527;54.616;39.786;2023-02-18T07:24:24;5.32;;;2.25;;
49626;SDS011;35527;54.616;39.786;2023-02-18T07:27:29;7.35;;;2.97;;
49626;SDS011;35527;54.616;39.786;2023-02-18T07:30:32;8.32;;;3.85;;
49626;SDS011;35527;54.616;39.786;2023-02-18T07:33:34;5.35;;;2.45;;
49626;SDS011;35527;54.616;39.786;2023-02-18T07:36:41;6.32;;;2.85;;
49626;SDS011;35527;54.616;39.786;2023-02-18T07:39:46;6.70;;;3.10;;
49626;SDS011;35527;54.616;39.786;2023-02-18T07:42:50;8.40;;;3.15;;
49626;SDS011;35527;54.616;39.786;2023-02-18T07:45:53;7.13;;;3.33;;
49626;SDS011;35527;54.616;39.786;2023-02-18T07:48:58;7.35;;;5.00;;
49626;SDS011;35527;54.616;39.786;2023-02-18T07:52:02;7.10;;;3.40;;
49626;SDS011;35527;54.616;39.786;2023-02-18T07:55:07;8.25;;;5.15;;
49626;SDS011;35527;54.616;39.786;2023-02-18T07:58:12;6.13;;;2.83;;
49626;SDS011;35527;54.616;39.786;2023-02-18T08:01:16;9.68;;;3.03;;
49626;SDS011;35527;54.616;39.786;2023-02-18T08:04:23;7.93;;;4.57;;
49626;SDS011;35527;54.616;39.786;2023-02-18T08:07:27;8.23;;;4.70;;
49626;SDS011;35527;54.616;39.786;2023-02-18T08:10:31;6.68;;;3.08;;
49626;SDS011;35527;54.616;39.786;2023-02-18T08:13:33;6.07;;;2.90;;
49626;SDS011;35527;54.616;39.786;2023-02-18T08:16:38;5.03;;;2.22;;
49626;SDS011;35527;54.616;39.786;2023-02-18T08:19:41;7.90;;;2.75;;
49626;SDS011;35527;54.616;39.786;2023-02-18T08:22:46;4.93;;;2.03;;
49626;SDS011;35527;54.616;39.786;2023-02-18T08:25:54;4.30;;;1.75;;
49626;SDS011;35527;54.616;39.786;2023-02-18T08:28:57;5.10;;;1.92;;
49626;SDS011;35527;54.616;39.786;2023-02-18T08:31:59;5.63;;;2.08;;
49626;SDS011;35527;54.616;39.786;2023-02-18T08:35:02;4.80;;;2.13;;
49626;SDS011;35527;54.616;39.786;2023-02-18T08:38:12;6.07;;;2.55;;
49626;SDS011;35527;54.616;39.786;2023-02-18T08:41:16;4.85;;;2.40;;
49626;SDS011;35527;54.616;39.786;2023-02-18T08:44:23;6.53;;;2.67;;
49626;SDS011;35527;54.616;39.786;2023-02-18T08:47:27;6.82;;;2.72;;
49626;SDS011;35527;54.616;39.786;2023-02-18T08:50:34;7.97;;;2.65;;
49626;SDS011;35527;54.616;39.786;2023-02-18T08:54:07;6.85;;;2.97;;
49626;SDS011;35527;54.616;39.786;2023-02-18T08:57:11;6.13;;;2.88;;
49626;SDS011;35527;54.616;39.786;2023-02-18T09:00:14;7.47;;;2.90;;
49626;SDS011;35527;54.616;39.786;2023-02-18T09:03:20;7.43;;;3.25;;
49626;SDS011;35527;54.616;39.786;2023-02-18T09:06:24;7.25;;;3.08;;
49626;SDS011;35527;54.616;39.786;2023-02-18T09:09:29;6.43;;;2.75;;
49626;SDS011;35527;54.616;39.786;2023-02-18T09:12:36;8.35;;;4.95;;
49626;SDS011;35527;54.616;39.786;2023-02-18T09:15:40;6.63;;;2.95;;
49626;SDS011;35527;54.616;39.786;2023-02-18T09:18:44;7.97;;;2.47;;
49626;SDS011;35527;54.616;39.786;2023-02-18T09:21:49;6.20;;;2.67;;
49626;SDS011;35527;54.616;39.786;2023-02-18T09:25:22;8.40;;;3.40;;
49626;SDS011;35527;54.616;39.786;2023-02-18T09:28:25;7.10;;;3.13;;
49626;SDS011;35527;54.616;39.786;2023-02-18T09:31:29;7.78;;;5.10;;
49626;SDS011;35527;54.616;39.786;2023-02-18T09:34:33;7.60;;;3.33;;
49626;SDS011;35527;54.616;39.786;2023-02-18T09:37:36;7.45;;;2.75;;
49626;SDS011;35527;54.616;39.786;2023-02-18T09:43:47;8.10;;;2.67;;
49626;SDS011;35527;54.616;39.786;2023-02-18T09:47:02;7.53;;;3.45;;
49626;SDS011;35527;54.616;39.786;2023-02-18T09:50:45;6.90;;;2.60;;
49626;SDS011;35527;54.616;39.786;2023-02-18T09:54:25;9.68;;;3.80;;
49626;SDS011;35527;54.616;39.786;2023-02-18T09:57:37;6.95;;;3.05;;
49626;SDS011;35527;54.616;39.786;2023-02-18T10:00:48;7.85;;;3.15;;
49626;SDS011;35527;54.616;39.786;2023-02-18T10:03:54;8.13;;;5.40;;
49626;SDS011;35527;54.616;39.786;2023-02-18T10:07:04;8.48;;;3.63;;
49626;SDS011;35527;54.616;39.786;2023-02-18T10:13:42;7.80;;;3.10;;
49626;SDS011;35527;54.616;39.786;2023-02-18T10:16:47;8.73;;;2.35;;
49626;SDS011;35527;54.616;39.786;2023-02-18T10:19:52;8.93;;;5.78;;
49626;SDS011;35527;54.616;39.786;2023-02-18T10:22:59;8.20;;;3.22;;
49626;SDS011;35527;54.616;39.786;2023-02-18T10:26:05;9.07;;;2.45;;
49626;SDS011;35527;54.616;39.786;2023-02-18T10:29:18;7.00;;;2.95;;
49626;SDS011;35527;54.616;39.786;2023-02-18T10:35:37;5.32;;;2.53;;
49626;SDS011;35527;54.616;39.786;2023-02-18T10:39:07;6.97;;;3.08;;
49626;SDS011;35527;54.616;39.786;2023-02-18T10:45:55;8.38;;;3.10;;
49626;SDS011;35527;54.616;39.786;2023-02-18T10:52:58;7.28;;;3.22;;
49626;SDS011;35527;54.616;39.786;2023-02-18T10:59:32;9.25;;;4.40;;
49626;SDS011;35527;54.616;39.786;2023-02-18T11:02:35;9.18;;;3.53;;
49626;SDS011;35527;54.616;39.786;2023-02-18T11:05:47;8.13;;;2.75;;
49626;SDS011;35527;54.616;39.786;2023-02-18T11:08:55;5.63;;;2.78;;
49626;SDS011;35527;54.616;39.786;2023-02-18T11:12:04;9.30;;;3.83;;
49626;SDS011;35527;54.616;39.786;2023-02-18T11:15:35;8.65;;;3.78;;
49626;SDS011;35527;54.616;39.786;2023-02-18T11:18:42;8.88;;;4.20;;
49626;SDS011;35527;54.616;39.786;2023-02-18T11:21:51;6.45;;;3.15;;
49626;SDS011;35527;54.616;39.786;2023-02-18T11:25:19;5.55;;;2.47;;
49626;SDS011;35527;54.616;39.786;2023-02-18T11:28:28;7.68;;;3.67;;
49626;SDS011;35527;54.616;39.786;2023-02-18T11:31:40;7.73;;;3.73;;
49626;SDS011;35527;54.616;39.786;2023-02-18T11:34:48;6.75;;;3.45;;
49626;SDS011;35527;54.616;39.786;2023-02-18T11:37:55;7.43;;;3.40;;
49626;SDS011;35527;54.616;39.786;2023-02-18T11:41:06;7.05;;;3.35;;
49626;SDS011;35527;54.616;39.786;2023-02-18T11:44:32;16.33;;;3.95;;
49626;SDS011;35527;54.616;39.786;2023-02-18T11:47:41;5.10;;;2.45;;
49626;SDS011;35527;54.616;39.786;2023-02-18T11:51:44;8.27;;;3.22;;
49626;SDS011;35527;54.616;39.786;2023-02-18T11:54:41;7.60;;;3.63;;
49626;SDS011;35527;54.616;39.786;2023-02-18T11:57:57;8.20;;;3.00;;
49626;SDS011;35527;54.616;39.786;2023-02-18T12:01:11;7.90;;;3.42;;
49626;SDS011;35527;54.616;39.786;2023-02-18T12:04:32;6.45;;;2.65;;
49626;SDS011;35527;54.616;39.786;2023-02-18T12:08:34;6.72;;;3.15;;
49626;SDS011;35527;54.616;39.786;2023-02-18T12:11:22;9.23;;;3.83;;
49626;SDS011;35527;54.616;39.786;2023-02-18T12:14:32;6.07;;;2.63;;
49626;SDS011;35527;54.616;39.786;2023-02-18T12:27:33;5.45;;;2.03;;
49626;SDS011;35527;54.616;39.786;2023-02-18T12:31:03;6.13;;;2.97;;
49626;SDS011;35527;54.616;39.786;2023-02-18T12:43:55;7.10;;;2.63;;
49626;SDS011;35527;54.616;39.786;2023-02-18T13:07:59;7.53;;;2.58;;
49626;SDS011;35527;54.616;39.786;2023-02-18T13:11:13;5.47;;;2.72;;
49626;SDS011;35527;54.616;39.786;2023-02-18T13:14:59;6.78;;;2.70;;
49626;SDS011;35527;54.616;39.786;2023-02-18T13:18:12;9.18;;;3.03;;
49626;SDS011;35527;54.616;39.786;2023-02-18T13:21:20;7.68;;;3.13;;
49626;SDS011;35527;54.616;39.786;2023-02-18T13:27:47;3.78;;;1.80;;
49626;SDS011;35527;54.616;39.786;2023-02-18T13:31:18;7.35;;;3.28;;
49626;SDS011;35527;54.616;39.786;2023-02-18T13:41:22;8.07;;;3.72;;
49626;SDS011;35527;54.616;39.786;2023-02-18T13:49:23;7.35;;;2.97;;
49626;SDS011;35527;54.616;39.786;2023-02-18T13:52:05;9.02;;;3.72;;
49626;SDS011;35527;54.616;39.786;2023-02-18T13:55:22;10.15;;;3.42;;
49626;SDS011;35527;54.616;39.786;2023-02-18T13:58:50;9.27;;;2.97;;
49626;SDS011;35527;54.616;39.786;2023-02-18T14:02:58;8.02;;;2.90;;
49626;SDS011;35527;54.616;39.786;2023-02-18T14:09:34;8.68;;;3.92;;
49626;SDS011;35527;54.616;39.786;2023-02-18T14:15:59;5.57;;;2.70;;
49626;SDS011;35527;54.616;39.786;2023-02-18T14:19:03;9.65;;;3.78;;
49626;SDS011;35527;54.616;39.786;2023-02-18T14:25:50;8.70;;;4.13;;
49626;SDS011;35527;54.616;39.786;2023-02-18T14:29:25;8.45;;;3.45;;
49626;SDS011;35527;54.616;39.786;2023-02-18T14:32:31;9.93;;;4.55;;
49626;SDS011;35527;54.616;39.786;2023-02-18T14:49:31;7.68;;;3.30;;
49626;SDS011;35527;54.616;39.786;2023-02-18T14:52:50;8.00;;;4.13;;
49626;SDS011;35527;54.616;39.786;2023-02-18T14:55:58;6.60;;;3.22;;
49626;SDS011;35527;54.616;39.786;2023-02-18T14:59:05;13.32;;;3.78;;
49626;SDS011;35527;54.616;39.786;2023-02-18T15:02:15;7.65;;;3.70;;
49626;SDS011;35527;54.616;39.786;2023-02-18T15:05:24;10.75;;;4.25;;
49626;SDS011;35527;54.616;39.786;2023-02-18T15:08:28;7.82;;;3.28;;
49626;SDS011;35527;54.616;39.786;2023-02-18T15:11:55;8.90;;;3.40;;
49626;SDS011;35527;54.616;39.786;2023-02-18T15:15:02;13.00;;;4.13;;
49626;SDS011;35527;54.616;39.786;2023-02-18T15:18:13;8.02;;;3.80;;
49626;SDS011;35527;54.616;39.786;2023-02-18T15:21:26;8.77;;;4.00;;
49626;SDS011;35527;54.616;39.786;2023-02-18T15:24:33;9.95;;;4.47;;
49626;SDS011;35527;54.616;39.786;2023-02-18T15:27:41;10.27;;;2.95;;
49626;SDS011;35527;54.616;39.786;2023-02-18T15:31:12;9.73;;;3.70;;
49626;SDS011;35527;54.616;39.786;2023-02-18T15:34:32;7.45;;;3.30;;
49626;SDS011;35527;54.616;39.786;2023-02-18T15:37:42;11.52;;;4.45;;
49626;SDS011;35527;54.616;39.786;2023-02-18T15:40:48;7.43;;;3.22;;
49626;SDS011;35527;54.616;39.786;2023-02-18T15:43:55;8.35;;;3.72;;
49626;SDS011;35527;54.616;39.786;2023-02-18T15:47:06;8.90;;;4.03;;
49626;SDS011;35527;54.616;39.786;2023-02-18T15:50:47;9.68;;;3.78;;
49626;SDS011;35527;54.616;39.786;2023-02-18T15:53:52;7.50;;;3.85;;
49626;SDS011;35527;54.616;39.786;2023-02-18T15:57:01;9.40;;;4.10;;
49626;SDS011;35527;54.616;39.786;2023-02-18T16:00:12;12.32;;;4.05;;
49626;SDS011;35527;54.616;39.786;2023-02-18T16:06:34;9.07;;;3.97;;
49626;SDS011;35527;54.616;39.786;2023-02-18T16:09:40;9.15;;;3.95;;
49626;SDS011;35527;54.616;39.786;2023-02-18T16:12:48;10.80;;;4.25;;
49626;SDS011;35527;54.616;39.786;2023-02-18T16:15:54;8.27;;;3.63;;
49626;SDS011;35527;54.616;39.786;2023-02-18T16:18:58;9.70;;;4.20;;
49626;SDS011;35527;54.616;39.786;2023-02-18T16:22:03;7.57;;;3.88;;
49626;SDS011;35527;54.616;39.786;2023-02-18T16:25:14;9.70;;;4.22;;
49626;SDS011;35527;54.616;39.786;2023-02-18T16:28:23;9.35;;;3.78;;
49626;SDS011;35527;54.616;39.786;2023-02-18T16:31:56;8.40;;;3.90;;
49626;SDS011;35527;54.616;39.786;2023-02-18T16:35:01;11.27;;;4.32;;
49626;SDS011;35527;54.616;39.786;2023-02-18T16:38:06;12.70;;;5.20;;
49626;SDS011;35527;54.616;39.786;2023-02-18T16:41:10;11.68;;;4.15;;
49626;SDS011;35527;54.616;39.786;2023-02-18T16:44:15;12.07;;;4.75;;
49626;SDS011;35527;54.616;39.786;2023-02-18T16:47:20;9.18;;;4.10;;
49626;SDS011;35527;54.616;39.786;2023-02-18T16:50:23;13.20;;;4.97;;
49626;SDS011;35527;54.616;39.786;2023-02-18T16:53:29;12.88;;;6.30;;
49626;SDS011;35527;54.616;39.786;2023-02-18T16:56:35;12.30;;;4.82;;
49626;SDS011;35527;54.616;39.786;2023-02-18T16:59:37;9.80;;;4.80;;
49626;SDS011;35527;54.616;39.786;2023-02-18T17:02:45;13.18;;;5.35;;
49626;SDS011;35527;54.616;39.786;2023-02-18T17:05:50;11.00;;;4.45;;
49626;SDS011;35527;54.616;39.786;2023-02-18T17:08:55;11.65;;;5.95;;
49626;SDS011;35527;54.616;39.786;2023-02-18T17:15:25;11.82;;;4.40;;
49626;SDS011;35527;54.616;39.786;2023-02-18T17:18:33;8.75;;;4.25;;
49626;SDS011;35527;54.616;39.786;2023-02-18T17:22:04;14.27;;;5.53;;
49626;SDS011;35527;54.616;39.786;2023-02-18T17:25:11;15.45;;;6.15;;
49626;SDS011;35527;54.616;39.786;2023-02-18T17:28:19;13.43;;;6.00;;
49626;SDS011;35527;54.616;39.786;2023-02-18T17:31:26;11.30;;;5.82;;
49626;SDS011;35527;54.616;39.786;2023-02-18T17:34:36;13.52;;;5.85;;
49626;SDS011;35527;54.616;39.786;2023-02-18T17:40:44;15.23;;;6.53;;
49626;SDS011;35527;54.616;39.786;2023-02-18T17:43:47;13.98;;;7.88;;
49626;SDS011;35527;54.616;39.786;2023-02-18T17:46:52;13.10;;;6.22;;
49626;SDS011;35527;54.616;39.786;2023-02-18T17:49:59;11.80;;;4.93;;
49626;SDS011;35527;54.616;39.786;2023-02-18T17:53:02;12.02;;;6.25;;
49626;SDS011;35527;54.616;39.786;2023-02-18T17:56:07;15.30;;;6.95;;
49626;SDS011;35527;54.616;39.786;2023-02-18T17:59:18;13.15;;;5.97;;
49626;SDS011;35527;54.616;39.786;2023-02-18T18:02:27;14.85;;;6.40;;
49626;SDS011;35527;54.616;39.786;2023-02-18T18:05:36;14.93;;;6.53;;
49626;SDS011;35527;54.616;39.786;2023-02-18T18:08:42;16.65;;;7.75;;
49626;SDS011;35527;54.616;39.786;2023-02-18T18:11:52;13.88;;;6.18;;
49626;SDS011;35527;54.616;39.786;2023-02-18T18:14:55;13.82;;;5.75;;
49626;SDS011;35527;54.616;39.786;2023-02-18T18:18:00;22.13;;;8.02;;
49626;SDS011;35527;54.616;39.786;2023-02-18T18:21:02;16.95;;;6.78;;
49626;SDS011;35527;54.616;39.786;2023-02-18T18:24:09;14.77;;;7.45;;
49626;SDS011;35527;54.616;39.786;2023-02-18T18:27:30;16.02;;;7.05;;
49626;SDS011;35527;54.616;39.786;2023-02-18T18:30:35;13.18;;;5.75;;
49626;SDS011;35527;54.616;39.786;2023-02-18T18:33:41;15.68;;;6.75;;
49626;SDS011;35527;54.616;39.786;2023-02-18T18:36:51;12.15;;;5.95;;
49626;SDS011;35527;54.616;39.786;2023-02-18T18:39:55;12.75;;;5.63;;
49626;SDS011;35527;54.616;39.786;2023-02-18T18:42:59;15.52;;;7.80;;
49626;SDS011;35527;54.616;39.786;2023-02-18T18:46:03;13.95;;;5.85;;
49626;SDS011;35527;54.616;39.786;2023-02-18T18:49:12;11.85;;;5.22;;
49626;SDS011;35527;54.616;39.786;2023-02-18T18:52:19;16.48;;;6.85;;
49626;SDS011;35527;54.616;39.786;2023-02-18T18:55:24;16.30;;;6.80;;
49626;SDS011;35527;54.616;39.786;2023-02-18T18:58:30;16.00;;;6.13;;
49626;SDS011;35527;54.616;39.786;2023-02-18T19:01:36;8.48;;;3.67;;
49626;SDS011;35527;54.616;39.786;2023-02-18T19:04:38;10.02;;;5.00;;
49626;SDS011;35527;54.616;39.786;2023-02-18T19:07:44;16.98;;;5.20;;
49626;SDS011;35527;54.616;39.786;2023-02-18T19:10:49;10.70;;;4.93;;
49626;SDS011;35527;54.616;39.786;2023-02-18T19:14:00;13.60;;;6.05;;
49626;SDS011;35527;54.616;39.786;2023-02-18T19:17:07;14.65;;;6.38;;
49626;SDS011;35527;54.616;39.786;2023-02-18T19:20:12;12.77;;;5.68;;
49626;SDS011;35527;54.616;39.786;2023-02-18T19:23:19;14.77;;;6.72;;
49626;SDS011;35527;54.616;39.786;2023-02-18T19:26:25;10.50;;;4.97;;
49626;SDS011;35527;54.616;39.786;2023-02-18T19:29:29;13.65;;;4.72;;
49626;SDS011;35527;54.616;39.786;2023-02-18T19:32:36;13.05;;;6.78;;
49626;SDS011;35527;54.616;39.786;2023-02-18T19:35:38;16.08;;;6.03;;
49626;SDS011;35527;54.616;39.786;2023-02-18T19:39:09;14.57;;;6.95;;
49626;SDS011;35527;54.616;39.786;2023-02-18T19:42:13;14.20;;;6.95;;
49626;SDS011;35527;54.616;39.786;2023-02-18T19:45:16;17.98;;;6.45;;
49626;SDS011;35527;54.616;39.786;2023-02-18T19:51:26;14.88;;;7.13;;
49626;SDS011;35527;54.616;39.786;2023-02-18T19:54:29;11.40;;;3.97;;
49626;SDS011;35527;54.616;39.786;2023-02-18T19:57:35;10.07;;;4.65;;
49626;SDS011;35527;54.616;39.786;2023-02-18T20:00:38;17.25;;;6.13;;
49626;SDS011;35527;54.616;39.786;2023-02-18T20:03:44;11.70;;;5.30;;
49626;SDS011;35527;54.616;39.786;2023-02-18T20:06:47;12.30;;;5.07;;
49626;SDS011;35527;54.616;39.786;2023-02-18T20:09:56;11.88;;;5.68;;
49626;SDS011;35527;54.616;39.786;2023-02-18T20:12:59;9.13;;;4.47;;
49626;SDS011;35527;54.616;39.786;2023-02-18T20:16:04;11.95;;;5.15;;
49626;SDS011;35527;54.616;39.786;2023-02-18T20:19:09;12.70;;;6.00;;
49626;SDS011;35527;54.616;39.786;2023-02-18T20:22:11;11.82;;;5.53;;
49626;SDS011;35527;54.616;39.786;2023-02-18T20:25:20;11.93;;;5.50;;
49626;SDS011;35527;54.616;39.786;2023-02-18T20:28:27;10.50;;;4.82;;
49626;SDS011;35527;54.616;39.786;2023-02-18T20:31:29;11.82;;;5.55;;
49626;SDS011;35527;54.616;39.786;2023-02-18T20:34:33;12.52;;;5.18;;
49626;SDS011;35527;54.616;39.786;2023-02-18T20:37:39;13.05;;;5.47;;
49626;SDS011;35527;54.616;39.786;2023-02-18T20:40:43;12.00;;;5.45;;
49626;SDS011;35527;54.616;39.786;2023-02-18T20:43:46;9.40;;;4.15;;
49626;SDS011;35527;54.616;39.786;2023-02-18T20:46:51;14.65;;;5.55;;
49626;SDS011;35527;54.616;39.786;2023-02-18T20:49:58;9.88;;;4.22;;
49626;SDS011;35527;54.616;39.786;2023-02-18T20:53:02;14.65;;;6.15;;
49626;SDS011;35527;54.616;39.786;2023-02-18T20:56:06;10.73;;;4.90;;
49626;SDS011;35527;54.616;39.786;2023-02-18T20:59:12;17.20;;;5.35;;
49626;SDS011;35527;54.616;39.786;2023-02-18T21:02:21;11.13;;;3.58;;
49626;SDS011;35527;54.616;39.786;2023-02-18T21:05:26;7.95;;;2.95;;
49626;SDS011;35527;54.616;39.786;2023-02-18T21:08:29;13.35;;;6.40;;
49626;SDS011;35527;54.616;39.786;2023-02-18T21:11:34;14.35;;;6.60;;
49626;SDS011;35527;54.616;39.786;2023-02-18T21:14:38;12.50;;;5.10;;
49626;SDS011;35527;54.616;39.786;2023-02-18T21:17:42;10.82;;;5.00;;
49626;SDS011;35527;54.616;39.786;2023-02-18T21:20:45;8.25;;;3.78;;